sensor_id;sensor_type;location;lat;lon;timestamp;pressure;altitude;pressure_sealevel;temperature;humidity
77041;BME280;65974;42.664;23.264;2023-06-10T00:01:41;94042.72;;;17.68;82.57
77041;BME280;65974;42.664;23.264;2023-06-10T00:04:06;94041.22;;;17.67;83.01
77041;BME280;65974;42.664;23.264;2023-06-10T00:06:33;94035.59;;;17.62;81.92
77041;BME280;65974;42.664;23.264;2023-06-10T00:09:02;94037.44;;;17.65;81.59
77041;BME280;65974;42.664;23.264;2023-06-10T00:11:30;94036.69;;;17.64;80.88
77041;BME280;65974;42.664;23.264;2023-06-10T00:13:55;94038.59;;;17.64;80.61
77041;BME280;65974;42.664;23.264;2023-06-10T00:16:21;94043.56;;;17.65;80.55
77041;BME280;65974;42.664;23.264;2023-06-10T00:18:46;94045.41;;;17.56;80.71
77041;BME280;65974;42.664;23.264;2023-06-10T00:21:12;94039.44;;;17.48;80.38
77041;BME280;65974;42.664;23.264;2023-06-10T00:23:38;94038.47;;;17.42;81.64
77041;BME280;65974;42.664;23.264;2023-06-10T00:26:04;94039.03;;;17.37;80.94
77041;BME280;65974;42.664;23.264;2023-06-10T00:28:30;94034.16;;;17.32;80.41
77041;BME280;65974;42.664;23.264;2023-06-10T00:30:55;94041.06;;;17.33;80.91
77041;BME280;65974;42.664;23.264;2023-06-10T00:33:22;94037.50;;;17.36;80.85
77041;BME280;65974;42.664;23.264;2023-06-10T00:35:48;94037.28;;;17.43;81.32
77041;BME280;65974;42.664;23.264;2023-06-10T00:38:14;94027.94;;;17.48;81.28
77041;BME280;65974;42.664;23.264;2023-06-10T00:40:40;94033.22;;;17.51;81.48
77041;BME280;65974;42.664;23.264;2023-06-10T00:43:06;94035.56;;;17.49;80.80
77041;BME280;65974;42.664;23.264;2023-06-10T00:45:32;94038.78;;;17.44;81.06
77041;BME280;65974;42.664;23.264;2023-06-10T00:47:59;94031.59;;;17.41;81.18
77041;BME280;65974;42.664;23.264;2023-06-10T00:50:25;94036.09;;;17.44;81.34
77041;BME280;65974;42.664;23.264;2023-06-10T00:52:51;94036.34;;;17.50;81.77
77041;BME280;65974;42.664;23.264;2023-06-10T00:55:17;94030.53;;;17.51;81.17
77041;BME280;65974;42.664;23.264;2023-06-10T00:57:46;94032.22;;;17.45;81.96
77041;BME280;65974;42.664;23.264;2023-06-10T01:00:14;94038.25;;;17.37;82.65
77041;BME280;65974;42.664;23.264;2023-06-10T01:02:40;94034.47;;;17.34;82.29
77041;BME280;65974;42.664;23.264;2023-06-10T01:05:07;94034.78;;;17.24;82.16
77041;BME280;65974;42.664;23.264;2023-06-10T01:07:39;94034.66;;;17.15;82.84
77041;BME280;65974;42.664;23.264;2023-06-10T01:10:23;94046.72;;;17.10;83.11
77041;BME280;65974;42.664;23.264;2023-06-10T01:12:59;94048.97;;;16.99;83.63
77041;BME280;65974;42.664;23.264;2023-06-10T01:15:29;94045.63;;;16.95;83.61
77041;BME280;65974;42.664;23.264;2023-06-10T01:18:02;94050.25;;;16.94;83.28
77041;BME280;65974;42.664;23.264;2023-06-10T01:20:32;94050.91;;;16.98;83.11
77041;BME280;65974;42.664;23.264;2023-06-10T01:22:59;94054.34;;;16.99;83.06
77041;BME280;65974;42.664;23.264;2023-06-10T01:25:26;94055.09;;;16.99;82.94
77041;BME280;65974;42.664;23.264;2023-06-10T01:30:27;94046.69;;;16.97;82.97
77041;BME280;65974;42.664;23.264;2023-06-10T01:32:58;94049.81;;;16.96;83.06
77041;BME280;65974;42.664;23.264;2023-06-10T01:35:25;94047.44;;;16.98;82.54
77041;BME280;65974;42.664;23.264;2023-06-10T01:37:54;94047.34;;;17.01;82.30
77041;BME280;65974;42.664;23.264;2023-06-10T01:40:23;94035.84;;;17.01;82.31
77041;BME280;65974;42.664;23.264;2023-06-10T01:42:49;94036.81;;;17.07;82.25
77041;BME280;65974;42.664;23.264;2023-06-10T01:45:15;94041.69;;;17.12;82.03
77041;BME280;65974;42.664;23.264;2023-06-10T01:47:40;94035.09;;;17.13;81.82
77041;BME280;65974;42.664;23.264;2023-06-10T01:50:06;94052.34;;;17.16;81.63
77041;BME280;65974;42.664;23.264;2023-06-10T01:52:31;94039.66;;;17.16;81.55
77041;BME280;65974;42.664;23.264;2023-06-10T01:54:57;94031.78;;;17.22;81.39
77041;BME280;65974;42.664;23.264;2023-06-10T01:57:22;94026.59;;;17.27;81.46
77041;BME280;65974;42.664;23.264;2023-06-10T01:59:48;94028.34;;;17.34;81.32
77041;BME280;65974;42.664;23.264;2023-06-10T02:02:13;94024.69;;;17.40;80.71
77041;BME280;65974;42.664;23.264;2023-06-10T02:04:38;94018.34;;;17.47;79.94
77041;BME280;65974;42.664;23.264;2023-06-10T02:07:04;94014.47;;;17.48;79.75
77041;BME280;65974;42.664;23.264;2023-06-10T02:09:31;94020.59;;;17.48;79.80
77041;BME280;65974;42.664;23.264;2023-06-10T02:11:57;94017.06;;;17.51;79.71
77041;BME280;65974;42.664;23.264;2023-06-10T02:14:24;94009.44;;;17.50;79.46
77041;BME280;65974;42.664;23.264;2023-06-10T02:16:49;94003.25;;;17.49;79.14
77041;BME280;65974;42.664;23.264;2023-06-10T02:19:16;94004.44;;;17.48;79.58
77041;BME280;65974;42.664;23.264;2023-06-10T02:21:42;94006.75;;;17.50;79.43
77041;BME280;65974;42.664;23.264;2023-06-10T02:24:08;94009.44;;;17.50;79.46
77041;BME280;65974;42.664;23.264;2023-06-10T02:26:33;94003.38;;;17.46;79.59
77041;BME280;65974;42.664;23.264;2023-06-10T02:28:59;93995.06;;;17.40;80.35
77041;BME280;65974;42.664;23.264;2023-06-10T02:31:25;93999.81;;;17.36;80.92
77041;BME280;65974;42.664;23.264;2023-06-10T02:33:50;93995.38;;;17.30;81.61
77041;BME280;65974;42.664;23.264;2023-06-10T02:36:16;94001.75;;;17.23;81.86
77041;BME280;65974;42.664;23.264;2023-06-10T02:38:42;93995.28;;;17.21;81.95
77041;BME280;65974;42.664;23.264;2023-06-10T02:41:07;93992.03;;;17.13;82.25
77041;BME280;65974;42.664;23.264;2023-06-10T02:43:33;93996.34;;;17.11;82.58
77041;BME280;65974;42.664;23.264;2023-06-10T02:45:59;93986.47;;;17.08;82.50
77041;BME280;65974;42.664;23.264;2023-06-10T02:48:24;93984.94;;;17.06;82.88
77041;BME280;65974;42.664;23.264;2023-06-10T02:50:50;93984.19;;;17.06;82.96
77041;BME280;65974;42.664;23.264;2023-06-10T02:53:16;93991.72;;;17.11;82.72
77041;BME280;65974;42.664;23.264;2023-06-10T02:55:41;93987.50;;;17.10;82.86
77041;BME280;65974;42.664;23.264;2023-06-10T02:58:08;93984.41;;;17.12;82.77
77041;BME280;65974;42.664;23.264;2023-06-10T03:00:33;93985.81;;;17.16;83.23
77041;BME280;65974;42.664;23.264;2023-06-10T03:02:59;93984.84;;;17.23;83.62
77041;BME280;65974;42.664;23.264;2023-06-10T03:05:29;93989.25;;;17.29;83.77
77041;BME280;65974;42.664;23.264;2023-06-10T03:07:54;93988.28;;;17.36;84.02
77041;BME280;65974;42.664;23.264;2023-06-10T03:10:20;93995.63;;;17.35;83.77
77041;BME280;65974;42.664;23.264;2023-06-10T03:12:45;94000.78;;;17.30;83.66
77041;BME280;65974;42.664;23.264;2023-06-10T03:15:11;94001.97;;;17.29;83.80
77041;BME280;65974;42.664;23.264;2023-06-10T03:17:36;94001.53;;;17.30;83.77
77041;BME280;65974;42.664;23.264;2023-06-10T03:20:02;93997.88;;;17.24;83.59
77041;BME280;65974;42.664;23.264;2023-06-10T03:22:30;94004.53;;;17.20;84.35
77041;BME280;65974;42.664;23.264;2023-06-10T03:24:56;94016.25;;;17.13;83.90
77041;BME280;65974;42.664;23.264;2023-06-10T03:27:22;94023.03;;;17.05;84.21
77041;BME280;65974;42.664;23.264;2023-06-10T03:29:47;94030.22;;;16.95;83.76
77041;BME280;65974;42.664;23.264;2023-06-10T03:32:13;94035.91;;;16.85;84.10
77041;BME280;65974;42.664;23.264;2023-06-10T03:34:38;94034.81;;;16.82;84.91
77041;BME280;65974;42.664;23.264;2023-06-10T03:37:04;94027.50;;;16.83;85.24
77041;BME280;65974;42.664;23.264;2023-06-10T03:39:30;94034.81;;;16.82;85.75
77041;BME280;65974;42.664;23.264;2023-06-10T03:41:55;94031.28;;;16.85;85.58
77041;BME280;65974;42.664;23.264;2023-06-10T03:44:22;94028.41;;;16.92;85.55
77041;BME280;65974;42.664;23.264;2023-06-10T03:46:47;94029.81;;;16.97;85.76
77041;BME280;65974;42.664;23.264;2023-06-10T03:49:13;94025.81;;;17.01;85.61
77041;BME280;65974;42.664;23.264;2023-06-10T03:51:40;94019.59;;;17.04;85.51
77041;BME280;65974;42.664;23.264;2023-06-10T03:54:05;94014.22;;;17.04;84.87
77041;BME280;65974;42.664;23.264;2023-06-10T03:56:31;94023.13;;;17.01;84.31
77041;BME280;65974;42.664;23.264;2023-06-10T03:58:57;94026.56;;;17.02;84.32
77041;BME280;65974;42.664;23.264;2023-06-10T04:01:24;94029.25;;;17.02;84.62
77041;BME280;65974;42.664;23.264;2023-06-10T04:03:49;94017.00;;;17.01;84.44
77041;BME280;65974;42.664;23.264;2023-06-10T04:06:16;94026.06;;;17.07;84.74
77041;BME280;65974;42.664;23.264;2023-06-10T04:08:42;94017.47;;;17.12;84.89
77041;BME280;65974;42.664;23.264;2023-06-10T04:11:08;94016.59;;;17.15;84.54
77041;BME280;65974;42.664;23.264;2023-06-10T04:13:34;94025.00;;;17.17;84.58
77041;BME280;65974;42.664;23.264;2023-06-10T04:15:59;94014.03;;;17.24;84.07
77041;BME280;65974;42.664;23.264;2023-06-10T04:18:25;94020.91;;;17.25;84.10
77041;BME280;65974;42.664;23.264;2023-06-10T04:20:50;94030.50;;;17.26;83.84
77041;BME280;65974;42.664;23.264;2023-06-10T04:23:16;94029.84;;;17.22;84.28
77041;BME280;65974;42.664;23.264;2023-06-10T04:25:41;94028.97;;;17.25;84.08
77041;BME280;65974;42.664;23.264;2023-06-10T04:28:07;94028.44;;;17.30;84.17
77041;BME280;65974;42.664;23.264;2023-06-10T04:30:32;94026.09;;;17.32;84.43
77041;BME280;65974;42.664;23.264;2023-06-10T04:32:58;94027.16;;;17.35;84.51
77041;BME280;65974;42.664;23.264;2023-06-10T04:35:24;94032.13;;;17.36;84.51
77041;BME280;65974;42.664;23.264;2023-06-10T04:37:51;94032.88;;;17.37;84.32
77041;BME280;65974;42.664;23.264;2023-06-10T04:40:17;94031.16;;;17.30;84.22
77041;BME280;65974;42.664;23.264;2023-06-10T04:42:42;94029.22;;;17.31;83.97
77041;BME280;65974;42.664;23.264;2023-06-10T04:45:08;94030.81;;;17.28;83.96
77041;BME280;65974;42.664;23.264;2023-06-10T04:47:34;94033.19;;;17.26;83.82
77041;BME280;65974;42.664;23.264;2023-06-10T04:50:00;94025.13;;;17.26;84.24
77041;BME280;65974;42.664;23.264;2023-06-10T04:52:25;94030.50;;;17.26;84.78
77041;BME280;65974;42.664;23.264;2023-06-10T04:54:51;94027.38;;;17.28;84.72
77041;BME280;65974;42.664;23.264;2023-06-10T04:57:17;94026.94;;;17.29;85.10
77041;BME280;65974;42.664;23.264;2023-06-10T04:59:42;94029.63;;;17.29;84.63
77041;BME280;65974;42.664;23.264;2023-06-10T05:02:07;94032.44;;;17.26;84.66
77041;BME280;65974;42.664;23.264;2023-06-10T05:04:33;94025.75;;;17.30;84.05
77041;BME280;65974;42.664;23.264;2023-06-10T05:06:58;94020.81;;;17.29;84.28
77041;BME280;65974;42.664;23.264;2023-06-10T05:09:24;94027.59;;;17.33;84.20
77041;BME280;65974;42.664;23.264;2023-06-10T05:11:51;94032.13;;;17.36;84.08
77041;BME280;65974;42.664;23.264;2023-06-10T05:14:16;94022.44;;;17.39;83.92
77041;BME280;65974;42.664;23.264;2023-06-10T05:16:42;94029.75;;;17.38;84.31
77041;BME280;65974;42.664;23.264;2023-06-10T05:19:08;94026.97;;;17.42;84.38
77041;BME280;65974;42.664;23.264;2023-06-10T05:21:34;94028.03;;;17.44;83.67
77041;BME280;65974;42.664;23.264;2023-06-10T05:23:59;94024.91;;;17.46;83.02
77041;BME280;65974;42.664;23.264;2023-06-10T05:26:24;94027.59;;;17.46;83.13
77041;BME280;65974;42.664;23.264;2023-06-10T05:28:50;94025.25;;;17.48;82.94
77041;BME280;65974;42.664;23.264;2023-06-10T05:31:16;94026.34;;;17.50;83.05
77041;BME280;65974;42.664;23.264;2023-06-10T05:33:41;94027.72;;;17.55;83.20
77041;BME280;65974;42.664;23.264;2023-06-10T05:36:06;94033.56;;;17.53;83.36
77041;BME280;65974;42.664;23.264;2023-06-10T05:38:32;94032.69;;;17.56;83.45
77041;BME280;65974;42.664;23.264;2023-06-10T05:40:57;94031.50;;;17.57;83.06
77041;BME280;65974;42.664;23.264;2023-06-10T05:43:24;94033.66;;;17.62;82.75
77041;BME280;65974;42.664;23.264;2023-06-10T05:45:49;94040.53;;;17.63;82.60
77041;BME280;65974;42.664;23.264;2023-06-10T05:48:15;94031.19;;;17.68;82.62
77041;BME280;65974;42.664;23.264;2023-06-10T05:50:40;94036.03;;;17.73;82.55
77041;BME280;65974;42.664;23.264;2023-06-10T05:53:08;94036.34;;;17.75;82.20
77041;BME280;65974;42.664;23.264;2023-06-10T05:55:44;94040.53;;;17.76;81.62
77041;BME280;65974;42.664;23.264;2023-06-10T05:58:10;94040.44;;;17.79;81.46
77041;BME280;65974;42.664;23.264;2023-06-10T06:00:35;94042.19;;;17.73;81.32
77041;BME280;65974;42.664;23.264;2023-06-10T06:03:01;94048.97;;;17.78;81.20
77041;BME280;65974;42.664;23.264;2023-06-10T06:05:26;94046.03;;;17.85;81.02
77041;BME280;65974;42.664;23.264;2023-06-10T06:07:51;94046.56;;;17.93;80.86
77041;BME280;65974;42.664;23.264;2023-06-10T06:10:18;94040.94;;;18.00;80.91
77041;BME280;65974;42.664;23.264;2023-06-10T06:12:43;94043.88;;;18.05;80.88
77041;BME280;65974;42.664;23.264;2023-06-10T06:15:10;94039.88;;;18.10;80.37
77041;BME280;65974;42.664;23.264;2023-06-10T06:17:36;94035.44;;;18.16;80.39
77041;BME280;65974;42.664;23.264;2023-06-10T06:20:02;94040.25;;;18.21;79.77
77041;BME280;65974;42.664;23.264;2023-06-10T06:22:28;94036.69;;;18.24;80.27
77041;BME280;65974;42.664;23.264;2023-06-10T06:24:53;94038.53;;;18.27;79.66
77041;BME280;65974;42.664;23.264;2023-06-10T06:27:18;94051.78;;;18.21;79.30
77041;BME280;65974;42.664;23.264;2023-06-10T06:29:44;94052.03;;;18.27;79.01
77041;BME280;65974;42.664;23.264;2023-06-10T06:32:10;94049.69;;;18.38;78.83
77041;BME280;65974;42.664;23.264;2023-06-10T06:34:36;94053.16;;;18.38;79.15
77041;BME280;65974;42.664;23.264;2023-06-10T06:37:01;94049.16;;;18.43;79.29
77041;BME280;65974;42.664;23.264;2023-06-10T06:39:26;94049.81;;;18.47;78.66
77041;BME280;65974;42.664;23.264;2023-06-10T06:41:53;94050.78;;;18.40;77.27
77041;BME280;65974;42.664;23.264;2023-06-10T06:44:18;94051.53;;;18.41;77.39
77041;BME280;65974;42.664;23.264;2023-06-10T06:46:44;94046.47;;;18.43;77.53
77041;BME280;65974;42.664;23.264;2023-06-10T06:49:12;94036.78;;;18.45;77.72
77041;BME280;65974;42.664;23.264;2023-06-10T06:51:38;94037.84;;;18.48;78.00
77041;BME280;65974;42.664;23.264;2023-06-10T06:54:04;94035.25;;;18.44;77.65
77041;BME280;65974;42.664;23.264;2023-06-10T06:56:32;94033.41;;;18.54;77.20
77041;BME280;65974;42.664;23.264;2023-06-10T06:58:57;94036.91;;;18.64;77.19
77041;BME280;65974;42.664;23.264;2023-06-10T07:01:23;94037.66;;;18.64;76.65
77041;BME280;65974;42.664;23.264;2023-06-10T07:03:48;94036.38;;;18.69;75.96
77041;BME280;65974;42.664;23.264;2023-06-10T07:06:14;94033.28;;;18.79;76.42
77041;BME280;65974;42.664;23.264;2023-06-10T07:08:39;94031.75;;;18.91;76.16
77041;BME280;65974;42.664;23.264;2023-06-10T07:11:05;94024.13;;;18.98;75.06
77041;BME280;65974;42.664;23.264;2023-06-10T07:13:30;94023.75;;;19.09;73.83
77041;BME280;65974;42.664;23.264;2023-06-10T07:15:56;94024.66;;;19.15;72.60
77041;BME280;65974;42.664;23.264;2023-06-10T07:18:21;94018.66;;;19.11;68.05
77041;BME280;65974;42.664;23.264;2023-06-10T07:20:47;94017.19;;;19.19;68.77
77041;BME280;65974;42.664;23.264;2023-06-10T07:23:12;94019.78;;;19.22;67.56
77041;BME280;65974;42.664;23.264;2023-06-10T07:25:37;94015.31;;;19.28;69.06
77041;BME280;65974;42.664;23.264;2023-06-10T07:28:03;94009.97;;;19.38;69.21
77041;BME280;65974;42.664;23.264;2023-06-10T07:30:28;94011.16;;;19.37;70.56
77041;BME280;65974;42.664;23.264;2023-06-10T07:32:54;94019.13;;;19.40;70.37
77041;BME280;65974;42.664;23.264;2023-06-10T07:35:21;94013.31;;;19.51;70.59
77041;BME280;65974;42.664;23.264;2023-06-10T07:37:46;94012.75;;;19.56;71.24
77041;BME280;65974;42.664;23.264;2023-06-10T07:40:12;94012.47;;;19.63;69.81
77041;BME280;65974;42.664;23.264;2023-06-10T07:42:37;94014.28;;;19.66;69.64
77041;BME280;65974;42.664;23.264;2023-06-10T07:45:05;94010.41;;;19.67;69.32
77041;BME280;65974;42.664;23.264;2023-06-10T07:47:32;94014.78;;;19.73;67.65
77041;BME280;65974;42.664;23.264;2023-06-10T07:49:58;94021.25;;;19.76;67.83
77041;BME280;65974;42.664;23.264;2023-06-10T07:52:24;94017.94;;;19.72;67.74
77041;BME280;65974;42.664;23.264;2023-06-10T07:54:51;94010.72;;;19.78;66.61
77041;BME280;65974;42.664;23.264;2023-06-10T07:57:17;94010.28;;;19.79;65.98
77041;BME280;65974;42.664;23.264;2023-06-10T07:59:43;94014.16;;;19.78;65.98
77041;BME280;65974;42.664;23.264;2023-06-10T08:02:09;94012.69;;;19.77;66.15
77041;BME280;65974;42.664;23.264;2023-06-10T08:04:35;94014.94;;;19.79;65.94
77041;BME280;65974;42.664;23.264;2023-06-10T08:07:01;94014.50;;;19.80;63.29
77041;BME280;65974;42.664;23.264;2023-06-10T08:09:28;94011.66;;;19.84;63.92
77041;BME280;65974;42.664;23.264;2023-06-10T08:11:54;94012.41;;;19.93;65.32
77041;BME280;65974;42.664;23.264;2023-06-10T08:14:20;94013.34;;;20.08;64.08
77041;BME280;65974;42.664;23.264;2023-06-10T08:16:46;93999.41;;;20.10;64.81
77041;BME280;65974;42.664;23.264;2023-06-10T08:19:11;94000.88;;;20.11;64.96
77041;BME280;65974;42.664;23.264;2023-06-10T08:21:37;94002.72;;;20.14;64.88
77041;BME280;65974;42.664;23.264;2023-06-10T08:24:05;93993.97;;;20.19;63.22
77041;BME280;65974;42.664;23.264;2023-06-10T08:26:31;93994.34;;;20.30;62.03
77041;BME280;65974;42.664;23.264;2023-06-10T08:28:56;93990.13;;;20.38;60.06
77041;BME280;65974;42.664;23.264;2023-06-10T08:31:22;93993.28;;;20.46;60.14
77041;BME280;65974;42.664;23.264;2023-06-10T08:33:47;93988.31;;;20.53;58.82
77041;BME280;65974;42.664;23.264;2023-06-10T08:36:13;93988.03;;;20.60;59.35
77041;BME280;65974;42.664;23.264;2023-06-10T08:38:39;93987.09;;;20.72;60.28
77041;BME280;65974;42.664;23.264;2023-06-10T08:41:05;93978.81;;;20.85;59.68
77041;BME280;65974;42.664;23.264;2023-06-10T08:43:42;93973.56;;;20.91;58.22
77041;BME280;65974;42.664;23.264;2023-06-10T08:46:09;93978.69;;;20.88;57.09
77041;BME280;65974;42.664;23.264;2023-06-10T08:48:41;93976.28;;;20.91;57.12
77041;BME280;65974;42.664;23.264;2023-06-10T08:51:09;93970.69;;;20.94;57.11
77041;BME280;65974;42.664;23.264;2023-06-10T08:53:37;93971.00;;;21.05;56.74
77041;BME280;65974;42.664;23.264;2023-06-10T08:56:04;93968.56;;;21.16;56.13
77041;BME280;65974;42.664;23.264;2023-06-10T08:58:32;93967.03;;;21.24;54.68
77041;BME280;65974;42.664;23.264;2023-06-10T09:01:08;93962.81;;;21.23;55.70
77041;BME280;65974;42.664;23.264;2023-06-10T09:03:37;93963.56;;;21.24;57.24
77041;BME280;65974;42.664;23.264;2023-06-10T09:06:04;93953.16;;;21.31;57.11
77041;BME280;65974;42.664;23.264;2023-06-10T09:08:30;93964.72;;;21.41;55.91
77041;BME280;65974;42.664;23.264;2023-06-10T09:10:57;93957.63;;;21.43;54.42
77041;BME280;65974;42.664;23.264;2023-06-10T09:13:22;93959.44;;;21.46;55.79
77041;BME280;65974;42.664;23.264;2023-06-10T09:15:48;93962.28;;;21.43;55.17
77041;BME280;65974;42.664;23.264;2023-06-10T09:18:16;93967.72;;;21.43;54.77
77041;BME280;65974;42.664;23.264;2023-06-10T09:20:43;93958.31;;;21.53;53.76
77041;BME280;65974;42.664;23.264;2023-06-10T09:23:08;93958.44;;;21.68;55.10
77041;BME280;65974;42.664;23.264;2023-06-10T09:25:37;93948.84;;;21.81;55.46
77041;BME280;65974;42.664;23.264;2023-06-10T09:28:03;93951.56;;;21.81;55.14
77041;BME280;65974;42.664;23.264;2023-06-10T09:30:33;93955.34;;;21.84;55.74
77041;BME280;65974;42.664;23.264;2023-06-10T09:33:11;93944.16;;;21.91;56.54
77041;BME280;65974;42.664;23.264;2023-06-10T09:35:48;93944.28;;;21.96;55.70
77041;BME280;65974;42.664;23.264;2023-06-10T09:38:21;93940.28;;;22.06;56.23
77041;BME280;65974;42.664;23.264;2023-06-10T09:40:50;93937.34;;;22.19;53.57
77041;BME280;65974;42.664;23.264;2023-06-10T09:43:16;93929.22;;;22.19;52.72
77041;BME280;65974;42.664;23.264;2023-06-10T09:45:42;93935.75;;;22.12;51.88
77041;BME280;65974;42.664;23.264;2023-06-10T09:48:10;93938.09;;;22.19;50.51
77041;BME280;65974;42.664;23.264;2023-06-10T09:50:42;93933.22;;;22.23;51.58
77041;BME280;65974;42.664;23.264;2023-06-10T09:53:09;93934.75;;;22.24;51.11
77041;BME280;65974;42.664;23.264;2023-06-10T09:55:37;93925.03;;;22.32;52.08
77041;BME280;65974;42.664;23.264;2023-06-10T09:58:04;93921.47;;;22.41;52.98
77041;BME280;65974;42.664;23.264;2023-06-10T10:00:32;93921.50;;;22.56;53.14
77041;BME280;65974;42.664;23.264;2023-06-10T10:02:58;93924.53;;;22.72;52.33
77041;BME280;65974;42.664;23.264;2023-06-10T10:05:24;93926.25;;;22.84;52.00
77041;BME280;65974;42.664;23.264;2023-06-10T10:07:49;93920.91;;;22.90;51.13
77041;BME280;65974;42.664;23.264;2023-06-10T10:10:17;93910.22;;;22.86;50.53
77041;BME280;65974;42.664;23.264;2023-06-10T10:12:46;93907.03;;;22.88;50.20
77041;BME280;65974;42.664;23.264;2023-06-10T10:15:12;93900.78;;;22.82;50.19
77041;BME280;65974;42.664;23.264;2023-06-10T10:17:52;93909.00;;;22.73;51.88
77041;BME280;65974;42.664;23.264;2023-06-10T10:20:22;93901.41;;;22.77;52.22
77041;BME280;65974;42.664;23.264;2023-06-10T10:22:50;93905.00;;;22.83;51.26
77041;BME280;65974;42.664;23.264;2023-06-10T10:25:24;93897.59;;;22.83;50.66
77041;BME280;65974;42.664;23.264;2023-06-10T10:27:52;93897.00;;;22.94;50.98
77041;BME280;65974;42.664;23.264;2023-06-10T10:30:22;93893.72;;;23.04;50.19
77041;BME280;65974;42.664;23.264;2023-06-10T10:32:57;93896.44;;;23.19;50.99
77041;BME280;65974;42.664;23.264;2023-06-10T10:35:25;93889.03;;;23.34;49.92
77041;BME280;65974;42.664;23.264;2023-06-10T10:37:54;93895.75;;;23.39;49.50
77041;BME280;65974;42.664;23.264;2023-06-10T10:40:21;93893.53;;;23.37;49.57
77041;BME280;65974;42.664;23.264;2023-06-10T10:42:48;93892.75;;;23.37;49.18
77041;BME280;65974;42.664;23.264;2023-06-10T10:45:14;93892.59;;;23.40;49.51
77041;BME280;65974;42.664;23.264;2023-06-10T10:47:41;93883.84;;;23.36;48.72
77041;BME280;65974;42.664;23.264;2023-06-10T10:50:18;93873.00;;;23.36;48.61
77041;BME280;65974;42.664;23.264;2023-06-10T10:55:22;93869.13;;;23.43;47.30
77041;BME280;65974;42.664;23.264;2023-06-10T10:58:14;93868.41;;;23.62;46.65
77041;BME280;65974;42.664;23.264;2023-06-10T11:00:45;93870.75;;;23.69;47.63
77041;BME280;65974;42.664;23.264;2023-06-10T11:03:15;93867.22;;;23.63;47.81
77041;BME280;65974;42.664;23.264;2023-06-10T11:05:48;93866.50;;;23.68;47.16
77041;BME280;65974;42.664;23.264;2023-06-10T11:08:15;93863.06;;;23.88;45.51
77041;BME280;65974;42.664;23.264;2023-06-10T11:11:00;93855.38;;;23.86;44.54
77041;BME280;65974;42.664;23.264;2023-06-10T11:13:26;93851.09;;;23.80;44.79
77041;BME280;65974;42.664;23.264;2023-06-10T11:15:57;93848.38;;;23.80;45.44
77041;BME280;65974;42.664;23.264;2023-06-10T11:18:43;93846.59;;;23.77;47.28
77041;BME280;65974;42.664;23.264;2023-06-10T11:21:08;93847.88;;;23.81;47.41
77041;BME280;65974;42.664;23.264;2023-06-10T11:23:38;93841.78;;;23.86;45.30
77041;BME280;65974;42.664;23.264;2023-06-10T11:33:49;93830.34;;;24.03;44.07
77041;BME280;65974;42.664;23.264;2023-06-10T11:36:17;93827.44;;;24.06;47.00
77041;BME280;65974;42.664;23.264;2023-06-10T11:38:42;93823.88;;;24.20;44.51
77041;BME280;65974;42.664;23.264;2023-06-10T11:41:08;93837.53;;;24.26;45.00
77041;BME280;65974;42.664;23.264;2023-06-10T11:43:34;93819.97;;;24.27;45.28
77041;BME280;65974;42.664;23.264;2023-06-10T11:45:59;93824.00;;;24.31;44.49
77041;BME280;65974;42.664;23.264;2023-06-10T11:48:25;93824.19;;;24.28;45.51
77041;BME280;65974;42.664;23.264;2023-06-10T11:50:53;93822.72;;;24.27;46.21
77041;BME280;65974;42.664;23.264;2023-06-10T11:53:19;93822.38;;;24.19;45.11
77041;BME280;65974;42.664;23.264;2023-06-10T11:55:49;93819.97;;;24.27;44.63
77041;BME280;65974;42.664;23.264;2023-06-10T12:00:52;93820.56;;;24.36;43.46
77041;BME280;65974;42.664;23.264;2023-06-10T12:03:20;93818.31;;;24.35;43.99
77041;BME280;65974;42.664;23.264;2023-06-10T12:06:02;93811.41;;;24.34;44.06
77041;BME280;65974;42.664;23.264;2023-06-10T12:08:28;93814.84;;;24.34;45.37
77041;BME280;65974;42.664;23.264;2023-06-10T12:10:55;93813.25;;;24.48;45.08
77041;BME280;65974;42.664;23.264;2023-06-10T12:13:22;93821.25;;;24.57;44.58
77041;BME280;65974;42.664;23.264;2023-06-10T12:15:48;93820.25;;;24.54;44.96
77041;BME280;65974;42.664;23.264;2023-06-10T12:18:22;93808.81;;;24.50;44.08
77041;BME280;65974;42.664;23.264;2023-06-10T12:20:48;93807.19;;;24.33;45.08
77041;BME280;65974;42.664;23.264;2023-06-10T12:23:16;93816.19;;;24.19;45.78
77041;BME280;65974;42.664;23.264;2023-06-10T12:25:52;93812.25;;;24.20;45.06
77041;BME280;65974;42.664;23.264;2023-06-10T12:28:22;93804.72;;;24.09;46.04
77041;BME280;65974;42.664;23.264;2023-06-10T12:30:48;93809.66;;;24.11;45.17
77041;BME280;65974;42.664;23.264;2023-06-10T12:35:49;93808.03;;;23.99;45.52
77041;BME280;65974;42.664;23.264;2023-06-10T12:38:24;93800.56;;;23.94;46.29
77041;BME280;65974;42.664;23.264;2023-06-10T12:40:52;93802.72;;;23.89;46.15
77041;BME280;65974;42.664;23.264;2023-06-10T12:43:22;93797.50;;;23.86;45.83
77041;BME280;65974;42.664;23.264;2023-06-10T12:45:48;93804.66;;;23.83;46.16
77041;BME280;65974;42.664;23.264;2023-06-10T12:48:21;93798.94;;;23.81;46.39
77041;BME280;65974;42.664;23.264;2023-06-10T12:50:51;93790.41;;;23.94;43.57
77041;BME280;65974;42.664;23.264;2023-06-10T12:53:18;93793.22;;;24.00;43.14
77041;BME280;65974;42.664;23.264;2023-06-10T12:55:43;93796.28;;;23.87;43.24
77041;BME280;65974;42.664;23.264;2023-06-10T12:58:11;93801.59;;;23.76;43.73
77041;BME280;65974;42.664;23.264;2023-06-10T13:00:36;93799.00;;;23.67;44.89
77041;BME280;65974;42.664;23.264;2023-06-10T13:03:03;93799.78;;;23.67;43.29
77041;BME280;65974;42.664;23.264;2023-06-10T13:05:31;93802.34;;;23.56;41.25
77041;BME280;65974;42.664;23.264;2023-06-10T13:07:57;93800.78;;;23.50;41.30